createdAt,value
2023-01-05T00:01:04.641Z,64.04
2023-01-05T00:03:32.890Z,64.01
2023-01-05T00:06:05.164Z,63.89
2023-01-05T00:08:37.000Z,64.03
2023-01-05T00:11:38.117Z,63.98
2023-01-05T00:14:26.049Z,63.65
2023-01-05T00:17:12.173Z,63.63
2023-01-05T00:19:58.432Z,64.51
2023-01-05T00:22:34.716Z,64.55
2023-01-05T00:25:12.232Z,64.30
2023-01-05T00:27:45.523Z,64.82
2023-01-05T00:30:15.353Z,65.19
2023-01-05T00:32:43.652Z,65.14
2023-01-05T00:35:12.334Z,64.46
2023-01-05T00:37:40.488Z,64.84
2023-01-05T00:40:10.700Z,64.97
2023-01-05T00:42:38.472Z,64.71
2023-01-05T00:45:07.442Z,65.73
2023-01-05T00:47:34.940Z,65.94
2023-01-05T00:50:02.639Z,65.60
2023-01-05T00:52:30.356Z,64.85
2023-01-05T00:54:57.759Z,65.03
2023-01-05T00:57:25.572Z,64.97
2023-01-05T00:59:53.629Z,64.99
2023-01-05T01:02:21.262Z,64.90
2023-01-05T01:04:49.717Z,64.18
2023-01-05T01:07:17.358Z,64.68
2023-01-05T01:09:44.804Z,64.27
2023-01-05T01:12:12.298Z,63.95
2023-01-05T01:14:41.368Z,64.45
2023-01-05T01:17:08.780Z,64.52
2023-01-05T01:19:36.859Z,64.76
2023-01-05T01:22:04.866Z,64.63
2023-01-05T01:24:33.574Z,64.94
2023-01-05T01:27:00.949Z,64.82
2023-01-05T01:29:29.610Z,64.10
2023-01-05T01:31:56.972Z,64.92
2023-01-05T01:34:24.655Z,64.50
2023-01-05T01:36:55.634Z,64.65
2023-01-05T01:39:23.713Z,64.40
2023-01-05T01:41:51.709Z,63.86
2023-01-05T01:44:47.657Z,64.09
2023-01-05T01:47:33.698Z,63.53
2023-01-05T01:50:05.789Z,64.19
2023-01-05T01:52:33.762Z,64.12
2023-01-05T01:55:02.488Z,63.61
2023-01-05T01:57:30.112Z,63.27
2023-01-05T01:59:59.507Z,64.18
2023-01-05T02:02:28.578Z,64.53
2023-01-05T02:05:00.339Z,64.00
2023-01-05T02:07:30.294Z,64.02
2023-01-05T02:09:58.077Z,64.84
2023-01-05T02:12:53.450Z,64.86
2023-01-05T02:15:40.170Z,64.88
2023-01-05T02:18:27.714Z,65.79
2023-01-05T02:21:16.736Z,65.47
2023-01-05T02:24:18.877Z,64.79
2023-01-05T02:27:05.529Z,64.78
2023-01-05T02:29:52.252Z,64.94
2023-01-05T02:32:23.206Z,64.51
2023-01-05T02:34:56.687Z,64.82
2023-01-05T02:37:28.169Z,65.00
2023-01-05T02:40:05.506Z,64.86
2023-01-05T02:42:35.813Z,64.35
2023-01-05T02:45:07.743Z,64.27
2023-01-05T02:47:38.416Z,64.12
2023-01-05T02:50:11.193Z,64.16
2023-01-05T02:52:42.873Z,64.24
2023-01-05T02:55:13.637Z,63.88
2023-01-05T02:57:48.460Z,64.87
2023-01-05T03:00:38.382Z,64.86
2023-01-05T03:03:22.068Z,64.55
2023-01-05T03:05:56.374Z,64.51
2023-01-05T03:08:32.447Z,64.59
2023-01-05T03:11:22.330Z,65.84
2023-01-05T03:14:20.691Z,65.70
2023-01-05T03:16:50.193Z,65.49
2023-01-05T03:19:38.463Z,65.64
2023-01-05T03:22:34.105Z,65.45
2023-01-05T03:25:22.504Z,65.13
2023-01-05T03:28:10.044Z,64.54
2023-01-05T03:31:05.542Z,64.75
2023-01-05T03:34:01.986Z,64.64
2023-01-05T03:36:31.389Z,64.98
2023-01-05T03:39:01.030Z,65.09
2023-01-05T03:41:31.017Z,65.79
2023-01-05T03:43:58.973Z,65.38
2023-01-05T03:46:28.032Z,64.67
2023-01-05T03:48:55.511Z,65.29
2023-01-05T03:51:23.729Z,65.45
2023-01-05T03:53:51.196Z,65.97
2023-01-05T03:56:18.786Z,65.65
2023-01-05T03:58:46.558Z,65.96
2023-01-05T04:01:14.632Z,66.01
2023-01-05T04:03:43.180Z,65.64
2023-01-05T04:06:11.567Z,65.72
2023-01-05T04:08:39.355Z,66.14
2023-01-05T04:11:14.969Z,66.14
2023-01-05T04:13:44.553Z,65.44
2023-01-05T04:16:12.893Z,65.34
2023-01-05T04:18:41.097Z,66.31
2023-01-05T04:21:09.973Z,65.56
2023-01-05T04:23:38.405Z,65.58
2023-01-05T04:26:06.015Z,66.24
2023-01-05T04:28:33.842Z,66.29
2023-01-05T04:31:01.984Z,66.40
2023-01-05T04:33:30.185Z,65.44
2023-01-05T04:35:58.508Z,65.11
2023-01-05T04:38:26.528Z,65.15
2023-01-05T04:40:54.132Z,65.32
2023-01-05T04:43:24.173Z,65.46
2023-01-05T04:45:51.935Z,65.32
2023-01-05T04:48:19.662Z,65.88
2023-01-05T04:50:53.650Z,65.26
2023-01-05T04:53:23.318Z,64.99
2023-01-05T04:55:51.748Z,64.38
2023-01-05T04:58:20.631Z,65.18
2023-01-05T05:00:49.794Z,65.69
2023-01-05T05:03:17.900Z,66.03
2023-01-05T05:05:45.476Z,65.87
2023-01-05T05:08:14.435Z,66.02
2023-01-05T05:10:41.912Z,65.89
2023-01-05T05:13:09.416Z,65.66
2023-01-05T05:15:38.597Z,65.45
2023-01-05T05:18:09.423Z,65.18
2023-01-05T05:20:41.833Z,65.69
2023-01-05T05:23:09.588Z,65.52
2023-01-05T05:25:37.622Z,65.81
2023-01-05T05:28:05.563Z,65.63
2023-01-05T05:30:32.997Z,65.82
2023-01-05T05:33:00.652Z,65.81
2023-01-05T05:35:28.028Z,65.24
2023-01-05T05:37:56.902Z,64.72
2023-01-05T05:40:26.268Z,65.37
2023-01-05T05:42:54.151Z,65.66
2023-01-05T05:45:21.509Z,65.81
2023-01-05T05:47:49.158Z,65.86
2023-01-05T05:50:16.697Z,65.58
2023-01-05T05:52:47.315Z,65.76
2023-01-05T05:55:15.046Z,65.75
2023-01-05T05:57:42.456Z,65.30
2023-01-05T06:00:10.443Z,65.50
2023-01-05T06:02:40.223Z,65.42
2023-01-05T06:05:08.438Z,65.24
2023-01-05T06:07:35.864Z,64.79
2023-01-05T06:10:03.330Z,64.82
2023-01-05T06:12:31.098Z,64.52
2023-01-05T06:14:58.599Z,64.27
2023-01-05T06:17:26.001Z,64.19
2023-01-05T06:19:53.848Z,64.24
2023-01-05T06:22:21.307Z,64.43
2023-01-05T06:24:48.716Z,63.75
2023-01-05T06:27:16.403Z,63.63
2023-01-05T06:29:43.848Z,63.69
2023-01-05T06:32:11.202Z,63.50
2023-01-05T06:34:38.866Z,63.55
2023-01-05T06:37:06.514Z,63.53
2023-01-05T06:39:33.958Z,63.41
2023-01-05T06:42:01.775Z,63.41
2023-01-05T06:44:29.171Z,63.50
2023-01-05T06:46:56.594Z,63.31
2023-01-05T06:49:24.284Z,63.15
2023-01-05T06:51:51.781Z,62.96
2023-01-05T06:54:19.145Z,63.41
2023-01-05T06:56:46.832Z,63.41
2023-01-05T06:59:14.257Z,63.40
2023-01-05T07:01:41.729Z,63.64
2023-01-05T07:04:09.591Z,63.58
2023-01-05T07:06:37.050Z,63.61
2023-01-05T07:09:04.462Z,63.68
2023-01-05T07:11:32.182Z,63.85
2023-01-05T07:13:59.606Z,63.76
2023-01-05T07:16:27.032Z,63.66
2023-01-05T07:18:54.894Z,63.98
2023-01-05T07:21:22.273Z,64.16
2023-01-05T07:23:49.640Z,64.57
2023-01-05T07:26:17.371Z,64.62
2023-01-05T07:28:44.813Z,64.40
2023-01-05T07:31:12.365Z,64.89
2023-01-05T07:33:40.533Z,65.15
2023-01-05T07:36:08.655Z,66.24
2023-01-05T07:38:36.068Z,66.23
2023-01-05T07:41:04.069Z,65.70
2023-01-05T07:43:31.495Z,65.69
2023-01-05T07:46:03.774Z,65.88
2023-01-05T07:48:31.585Z,66.01
2023-01-05T07:51:03.327Z,65.63
2023-01-05T07:53:34.662Z,65.58
2023-01-05T07:56:06.966Z,65.32
2023-01-05T07:58:34.351Z,65.22
2023-01-05T08:01:10.105Z,67.01
2023-01-05T08:03:38.013Z,65.72
2023-01-05T08:06:09.099Z,66.52
2023-01-05T08:08:36.577Z,66.29
2023-01-05T08:11:05.877Z,66.05
2023-01-05T08:13:52.411Z,65.74
2023-01-05T08:16:20.432Z,65.83
2023-01-05T08:18:48.107Z,65.84
2023-01-05T08:21:15.846Z,65.59
2023-01-05T08:23:45.849Z,65.89
2023-01-05T08:26:15.984Z,81.22
2023-01-05T08:28:44.245Z,75.91
2023-01-05T08:31:16.341Z,72.45
2023-01-05T08:33:43.954Z,69.32
2023-01-05T08:36:13.786Z,67.12
2023-01-05T08:38:50.365Z,66.09
2023-01-05T08:41:22.078Z,64.86
2023-01-05T08:43:54.161Z,63.53
2023-01-05T08:46:23.827Z,63.44
2023-01-05T08:48:53.554Z,63.70
2023-01-05T08:51:21.089Z,62.19
2023-01-05T08:53:49.429Z,63.37
2023-01-05T08:56:16.924Z,62.29
2023-01-05T08:58:44.664Z,59.38
2023-01-05T09:01:15.121Z,59.58
2023-01-05T09:03:42.969Z,60.16
2023-01-05T09:06:12.489Z,60.88
2023-01-05T09:08:41.836Z,62.00
2023-01-05T09:11:14.765Z,62.39
2023-01-05T09:13:49.763Z,63.03
2023-01-05T09:16:42.451Z,64.26
2023-01-05T09:19:07.185Z,63.44
2023-01-05T09:21:34.692Z,64.60
2023-01-05T09:24:02.077Z,65.17
2023-01-05T09:26:29.785Z,65.39
2023-01-05T09:28:57.145Z,66.34
2023-01-05T09:31:24.578Z,65.49
2023-01-05T09:33:52.333Z,66.27
2023-01-05T09:36:19.791Z,67.47
2023-01-05T09:38:51.402Z,67.57
2023-01-05T09:41:28.731Z,67.08
2023-01-05T09:43:59.307Z,66.18
2023-01-05T09:46:35.410Z,66.55
2023-01-05T09:49:05.350Z,67.37
2023-01-05T09:51:33.478Z,67.04
2023-01-05T09:54:01.579Z,66.58
2023-01-05T09:59:26.453Z,67.14
2023-01-05T10:01:56.205Z,67.94
2023-01-05T10:04:30.584Z,67.92
2023-01-05T10:07:08.068Z,67.86
2023-01-05T10:09:39.152Z,67.57
2023-01-05T10:12:28.530Z,67.43
2023-01-05T10:15:00.997Z,67.57
2023-01-05T10:17:41.245Z,68.93
2023-01-05T10:20:33.122Z,68.35
2023-01-05T10:23:13.761Z,67.92
2023-01-05T10:26:24.763Z,67.42
2023-01-05T10:29:16.026Z,67.82
2023-01-05T10:31:47.082Z,68.30
2023-01-05T10:34:25.162Z,67.71
2023-01-05T10:37:27.120Z,67.34
2023-01-05T10:39:57.872Z,67.81
2023-01-05T10:42:46.419Z,68.88
2023-01-05T10:45:15.449Z,68.87
2023-01-05T10:47:45.313Z,69.03
2023-01-05T10:50:32.095Z,68.44
2023-01-05T10:53:02.023Z,68.74
2023-01-05T10:55:30.238Z,68.26
2023-01-05T10:57:57.628Z,68.84
2023-01-05T11:00:40.408Z,67.64
2023-01-05T11:03:10.083Z,66.92
2023-01-05T11:05:39.690Z,68.77
2023-01-05T11:08:22.145Z,72.08
2023-01-05T11:10:50.877Z,71.35
2023-01-05T11:13:27.514Z,70.90
2023-01-05T11:15:59.785Z,70.06
2023-01-05T11:19:01.802Z,70.56
2023-01-05T11:21:35.398Z,70.15
2023-01-05T11:24:03.836Z,69.39
2023-01-05T11:26:36.900Z,70.74
2023-01-05T11:29:10.347Z,71.55
2023-01-05T11:31:44.961Z,71.77
2023-01-05T11:34:27.651Z,71.45
2023-01-05T11:37:07.401Z,71.46
2023-01-05T11:39:47.535Z,72.65
2023-01-05T11:42:25.047Z,72.97
2023-01-05T11:45:05.462Z,73.95
2023-01-05T11:47:44.855Z,74.01
2023-01-05T11:50:22.035Z,73.49
2023-01-05T11:52:55.072Z,74.28
2023-01-05T11:55:38.269Z,73.03
2023-01-05T11:58:12.243Z,73.99
2023-01-05T12:01:01.632Z,72.68
2023-01-05T12:03:41.732Z,73.51
2023-01-05T12:06:45.882Z,72.32
2023-01-05T12:09:20.187Z,72.14
2023-01-05T12:11:57.175Z,72.68
2023-01-05T12:14:52.782Z,72.69
2023-01-05T12:17:27.645Z,72.78
2023-01-05T12:20:37.404Z,72.65
2023-01-05T12:23:10.879Z,72.59
2023-01-05T12:25:56.882Z,72.91
2023-01-05T12:29:34.810Z,73.72
2023-01-05T12:35:07.669Z,72.13
2023-01-05T12:38:03.472Z,72.31
2023-01-05T12:41:09.245Z,73.45
2023-01-05T12:43:36.934Z,73.26
2023-01-05T12:46:23.501Z,73.20
2023-01-05T12:49:05.165Z,73.41
2023-01-05T12:52:13.680Z,73.87
2023-01-05T12:54:50.054Z,72.85
2023-01-05T12:57:25.024Z,72.67
2023-01-05T12:59:53.391Z,71.61
2023-01-05T13:02:37.095Z,71.98
2023-01-05T13:05:14.372Z,72.60
2023-01-05T13:07:47.745Z,71.89
2023-01-05T13:10:45.702Z,70.73
2023-01-05T13:13:15.379Z,70.43
2023-01-05T13:15:50.830Z,71.19
2023-01-05T13:18:19.231Z,70.50
2023-01-05T13:20:53.664Z,71.16
2023-01-05T13:23:25.527Z,70.29
2023-01-05T13:26:00.168Z,70.44
2023-01-05T13:28:29.999Z,71.27
2023-01-05T13:31:16.162Z,71.55
2023-01-05T13:34:22.278Z,71.11
2023-01-05T13:37:11.555Z,72.08
2023-01-05T13:39:50.915Z,71.85
2023-01-05T13:42:32.979Z,71.54
2023-01-05T13:45:09.085Z,71.35
2023-01-05T13:47:49.252Z,70.79
2023-01-05T13:50:45.873Z,70.50
2023-01-05T13:55:57.809Z,70.73
2023-01-05T13:58:46.235Z,71.31
2023-01-05T14:01:16.266Z,71.75
2023-01-05T14:03:50.702Z,71.56
2023-01-05T14:06:27.426Z,71.24
2023-01-05T14:11:32.392Z,70.04
2023-01-05T14:14:20.143Z,70.95
2023-01-05T14:16:48.721Z,71.01
2023-01-05T14:22:21.893Z,71.63
2023-01-05T14:24:49.822Z,71.86
2023-01-05T14:27:24.561Z,71.89
2023-01-05T14:29:52.392Z,72.47
2023-01-05T14:32:28.430Z,71.73
2023-01-05T14:37:36.497Z,70.81
2023-01-05T14:40:18.224Z,71.61
2023-01-05T14:42:47.967Z,71.19
2023-01-05T14:45:22.762Z,71.71
2023-01-05T14:47:52.783Z,70.93
2023-01-05T14:50:43.829Z,71.19
2023-01-05T14:53:14.440Z,70.65
2023-01-05T14:56:03.372Z,69.79
2023-01-05T14:58:33.569Z,70.75
2023-01-05T15:01:19.137Z,70.00
2023-01-05T15:04:11.662Z,69.90
2023-01-05T15:06:42.272Z,70.23
2023-01-05T15:09:21.955Z,70.77
2023-01-05T15:12:23.942Z,70.24
2023-01-05T15:14:54.527Z,70.40
2023-01-05T15:17:30.978Z,69.67
2023-01-05T15:20:13.415Z,68.90
2023-01-05T15:23:03.655Z,70.26
2023-01-05T15:25:30.917Z,68.54
2023-01-05T15:28:17.326Z,68.24
2023-01-05T15:30:53.266Z,68.21
2023-01-05T15:33:30.524Z,68.03
2023-01-05T15:36:02.063Z,66.71
2023-01-05T15:38:30.782Z,66.85
2023-01-05T15:41:09.561Z,67.20
2023-01-05T15:43:39.595Z,67.20
2023-01-05T15:46:07.450Z,67.70
2023-01-05T15:48:38.505Z,66.99
2023-01-05T15:51:06.505Z,66.97
2023-01-05T15:53:38.077Z,67.02
2023-01-05T15:56:27.083Z,66.22
2023-01-05T15:58:54.522Z,65.96
2023-01-05T16:01:22.339Z,66.43
2023-01-05T16:03:50.480Z,66.26
2023-01-05T16:06:22.507Z,65.95
2023-01-05T16:08:52.362Z,65.61
2023-01-05T16:11:32.513Z,65.71
2023-01-05T16:14:04.616Z,65.53
2023-01-05T16:16:51.990Z,65.84
2023-01-05T16:19:28.013Z,66.34
2023-01-05T16:22:12.732Z,65.04
2023-01-05T16:24:51.814Z,64.62
2023-01-05T16:27:19.387Z,64.46
2023-01-05T16:29:48.502Z,63.88
2023-01-05T16:32:30.737Z,63.66
2023-01-05T16:35:33.075Z,63.63
2023-01-05T16:38:09.733Z,63.83
2023-01-05T16:41:03.500Z,62.67
2023-01-05T16:43:41.529Z,63.00
2023-01-05T16:46:16.655Z,63.09
2023-01-05T16:48:48.175Z,62.91
2023-01-05T16:51:21.625Z,62.34
2023-01-05T16:53:55.414Z,62.39
2023-01-05T16:56:57.842Z,62.22
2023-01-05T16:59:47.743Z,62.22
2023-01-05T17:02:38.493Z,62.68
2023-01-05T17:05:06.819Z,63.24
2023-01-05T17:07:38.249Z,63.01
2023-01-05T17:10:07.605Z,63.78
2023-01-05T17:12:35.349Z,63.59
2023-01-05T17:15:05.769Z,63.73
2023-01-05T17:17:33.455Z,63.90
2023-01-05T17:20:01.147Z,63.62
2023-01-05T17:22:29.005Z,63.26
2023-01-05T17:24:56.479Z,62.51
2023-01-05T17:27:24.221Z,62.72
2023-01-05T17:29:53.207Z,62.75
2023-01-05T17:32:20.733Z,62.28
2023-01-05T17:34:48.417Z,62.17
2023-01-05T17:37:16.632Z,63.26
2023-01-05T17:39:44.081Z,61.84
2023-01-05T17:42:30.023Z,62.76
2023-01-05T17:44:57.413Z,62.15
2023-01-05T17:47:25.065Z,62.87
2023-01-05T17:49:52.471Z,62.33
2023-01-05T17:52:19.837Z,62.10
2023-01-05T17:54:47.595Z,62.54
2023-01-05T17:57:15.048Z,62.91
2023-01-05T17:59:44.607Z,62.39
2023-01-05T18:02:12.374Z,62.85
2023-01-05T18:04:40.247Z,62.48
2023-01-05T18:09:37.963Z,61.83
2023-01-05T18:12:06.042Z,61.69
2023-01-05T18:14:33.469Z,63.36
2023-01-05T18:17:00.945Z,63.21
2023-01-05T18:19:29.472Z,63.07
2023-01-05T18:21:58.978Z,61.98
2023-01-05T18:24:26.636Z,62.14
2023-01-05T18:26:55.903Z,62.09
2023-01-05T18:29:23.615Z,62.66
2023-01-05T18:31:50.977Z,63.21
2023-01-05T18:34:18.815Z,62.70
2023-01-05T18:36:47.318Z,62.66
2023-01-05T18:39:16.381Z,63.61
2023-01-05T18:41:44.349Z,63.55
2023-01-05T18:44:11.753Z,63.01
2023-01-05T18:46:39.253Z,62.77
2023-01-05T18:49:07.042Z,63.75
2023-01-05T18:51:34.457Z,63.27
2023-01-05T18:54:01.865Z,64.12
2023-01-05T18:56:29.573Z,63.03
2023-01-05T18:58:57.481Z,63.73
2023-01-05T19:01:25.361Z,62.27
2023-01-05T19:03:53.731Z,63.38
2023-01-05T19:06:25.828Z,62.65
2023-01-05T19:08:53.533Z,61.88
2023-01-05T19:11:26.052Z,62.71
2023-01-05T19:13:59.466Z,62.67
2023-01-05T19:16:29.514Z,63.40
2023-01-05T19:19:04.982Z,63.46
2023-01-05T19:21:34.071Z,63.11
2023-01-05T19:24:02.340Z,62.37
2023-01-05T19:26:32.040Z,62.47
2023-01-05T19:29:01.264Z,61.67
2023-01-05T19:31:30.334Z,62.13
2023-01-05T19:34:00.561Z,62.73
2023-01-05T19:36:32.372Z,62.49
2023-01-05T19:39:27.209Z,61.72
2023-01-05T19:41:54.844Z,62.55
2023-01-05T19:44:22.830Z,62.16
2023-01-05T19:46:53.175Z,61.36
2023-01-05T19:49:27.698Z,67.98
2023-01-05T19:51:55.839Z,61.21
2023-01-05T19:54:25.477Z,61.16
2023-01-05T19:56:54.666Z,60.52
2023-01-05T19:59:26.221Z,61.50
2023-01-05T20:01:56.099Z,60.81
2023-01-05T20:04:24.035Z,60.74
2023-01-05T20:06:51.445Z,61.51
2023-01-05T20:09:19.359Z,61.59
2023-01-05T20:11:49.171Z,60.20
2023-01-05T20:14:21.911Z,61.19
2023-01-05T20:16:55.430Z,61.70
2023-01-05T20:19:25.753Z,61.62
2023-01-05T20:21:54.874Z,60.66
2023-01-05T20:24:25.270Z,60.54
2023-01-05T20:26:55.895Z,60.80
2023-01-05T20:29:23.927Z,60.71
2023-01-05T20:31:54.405Z,61.49
2023-01-05T20:34:23.698Z,61.01
2023-01-05T20:36:51.283Z,60.52
2023-01-05T20:39:22.051Z,60.87
2023-01-05T20:41:51.534Z,61.42
2023-01-05T20:44:21.678Z,60.83
2023-01-05T20:46:50.469Z,60.85
2023-01-05T20:49:18.312Z,60.42
2023-01-05T20:51:46.105Z,61.22
2023-01-05T20:54:14.256Z,60.42
2023-01-05T20:56:43.712Z,60.38
2023-01-05T20:59:14.062Z,60.12
2023-01-05T21:01:42.095Z,60.81
2023-01-05T21:04:09.535Z,61.15
2023-01-05T21:06:37.200Z,61.72
2023-01-05T21:09:05.532Z,60.85
2023-01-05T21:11:32.913Z,60.06
2023-01-05T21:14:00.998Z,59.95
2023-01-05T21:16:36.240Z,60.48
2023-01-05T21:19:05.546Z,60.60
2023-01-05T21:21:34.489Z,60.53
2023-01-05T21:24:02.759Z,60.03
2023-01-05T21:26:30.188Z,60.51
2023-01-05T21:28:57.877Z,60.38
2023-01-05T21:31:26.064Z,60.21
2023-01-05T21:33:54.356Z,60.70
2023-01-05T21:36:24.700Z,60.87
2023-01-05T21:39:03.565Z,60.66
2023-01-05T21:41:51.063Z,61.23
2023-01-05T21:44:18.796Z,61.44
2023-01-05T21:46:47.443Z,61.83
2023-01-05T21:49:15.060Z,61.47
2023-01-05T21:52:01.615Z,61.03
2023-01-05T21:54:48.416Z,61.45
2023-01-05T21:57:15.884Z,60.68
2023-01-05T21:59:43.773Z,60.55
2023-01-05T22:02:11.784Z,60.26
2023-01-05T22:04:39.596Z,61.08
2023-01-05T22:07:07.443Z,60.71
2023-01-05T22:09:35.668Z,60.51
2023-01-05T22:12:07.182Z,60.65
2023-01-05T22:14:36.234Z,61.88
2023-01-05T22:17:05.525Z,61.20
2023-01-05T22:19:33.259Z,61.53
2023-01-05T22:22:00.664Z,61.16
2023-01-05T22:24:29.941Z,60.73
2023-01-05T22:26:57.296Z,60.50
2023-01-05T22:29:25.176Z,60.12
2023-01-05T22:31:52.989Z,60.11
2023-01-05T22:34:20.537Z,60.77
2023-01-05T22:36:49.013Z,61.96
2023-01-05T22:39:17.210Z,61.63
2023-01-05T22:41:46.407Z,60.56
2023-01-05T22:44:13.884Z,59.41
2023-01-05T22:46:41.690Z,59.32
2023-01-05T22:49:13.027Z,58.95
2023-01-05T22:51:44.699Z,58.14
2023-01-05T22:54:12.399Z,57.53
2023-01-05T22:56:40.038Z,58.22
2023-01-05T22:59:07.941Z,57.56
2023-01-05T23:01:43.111Z,57.85
2023-01-05T23:04:11.616Z,57.96
2023-01-05T23:06:39.391Z,57.06
2023-01-05T23:09:09.302Z,57.06
2023-01-05T23:11:39.276Z,57.06
2023-01-05T23:14:08.714Z,57.93
2023-01-05T23:16:36.586Z,58.54
2023-01-05T23:19:05.683Z,57.53
2023-01-05T23:21:33.343Z,56.98
2023-01-05T23:24:00.990Z,57.15
2023-01-05T23:26:29.040Z,57.26
2023-01-05T23:28:56.711Z,57.45
2023-01-05T23:31:24.409Z,57.89
2023-01-05T23:33:52.079Z,57.52
2023-01-05T23:36:20.449Z,57.83
2023-01-05T23:38:48.334Z,57.99
2023-01-05T23:41:17.351Z,57.64
2023-01-05T23:43:45.785Z,58.51
2023-01-05T23:46:20.103Z,57.77
2023-01-05T23:48:49.130Z,58.00
2023-01-05T23:51:18.213Z,58.58
2023-01-05T23:53:48.345Z,58.12
2023-01-05T23:56:18.714Z,58.51
2023-01-05T23:58:47.072Z,59.13
